sensor_id;sensor_type;location;lat;lon;timestamp;temperature;humidity
7704;DHT22;3894;49.700;10.770;2023-06-24T00:01:15;16.00;99.90
7704;DHT22;3894;49.700;10.770;2023-06-24T00:03:40;15.90;99.90
7704;DHT22;3894;49.700;10.770;2023-06-24T00:06:12;15.80;99.90
7704;DHT22;3894;49.700;10.770;2023-06-24T00:08:49;15.80;99.90
7704;DHT22;3894;49.700;10.770;2023-06-24T00:11:15;15.70;99.90
7704;DHT22;3894;49.700;10.770;2023-06-24T00:13:42;15.70;99.90
7704;DHT22;3894;49.700;10.770;2023-06-24T00:16:08;15.80;99.90
7704;DHT22;3894;49.700;10.770;2023-06-24T00:18:35;15.80;99.90
7704;DHT22;3894;49.700;10.770;2023-06-24T00:21:02;15.90;99.90
7704;DHT22;3894;49.700;10.770;2023-06-24T00:23:29;15.90;99.90
7704;DHT22;3894;49.700;10.770;2023-06-24T00:25:56;15.90;99.90
7704;DHT22;3894;49.700;10.770;2023-06-24T00:28:22;15.80;99.90
7704;DHT22;3894;49.700;10.770;2023-06-24T00:30:48;15.70;99.90
7704;DHT22;3894;49.700;10.770;2023-06-24T00:33:14;15.60;99.90
7704;DHT22;3894;49.700;10.770;2023-06-24T00:35:40;15.60;99.90
7704;DHT22;3894;49.700;10.770;2023-06-24T00:38:06;15.60;99.90
7704;DHT22;3894;49.700;10.770;2023-06-24T00:40:32;15.60;99.90
7704;DHT22;3894;49.700;10.770;2023-06-24T00:42:59;15.70;99.90
7704;DHT22;3894;49.700;10.770;2023-06-24T00:45:27;15.70;99.90
7704;DHT22;3894;49.700;10.770;2023-06-24T00:47:53;15.60;99.90
7704;DHT22;3894;49.700;10.770;2023-06-24T00:50:20;15.60;99.90
7704;DHT22;3894;49.700;10.770;2023-06-24T00:52:46;15.50;99.90
7704;DHT22;3894;49.700;10.770;2023-06-24T00:55:15;15.60;99.90
7704;DHT22;3894;49.700;10.770;2023-06-24T00:57:43;15.60;99.90
7704;DHT22;3894;49.700;10.770;2023-06-24T01:00:09;15.50;99.90
7704;DHT22;3894;49.700;10.770;2023-06-24T01:02:39;15.50;99.90
7704;DHT22;3894;49.700;10.770;2023-06-24T01:05:07;15.50;99.90
7704;DHT22;3894;49.700;10.770;2023-06-24T01:07:34;15.50;99.90
7704;DHT22;3894;49.700;10.770;2023-06-24T01:10:02;15.50;99.90
7704;DHT22;3894;49.700;10.770;2023-06-24T01:12:27;15.50;99.90
7704;DHT22;3894;49.700;10.770;2023-06-24T01:14:53;15.60;99.90
7704;DHT22;3894;49.700;10.770;2023-06-24T01:17:24;15.50;99.90
7704;DHT22;3894;49.700;10.770;2023-06-24T01:25:43;14.90;99.90
7704;DHT22;3894;49.700;10.770;2023-06-24T01:34:15;14.50;99.90
7704;DHT22;3894;49.700;10.770;2023-06-24T01:36:43;14.60;99.90
7704;DHT22;3894;49.700;10.770;2023-06-24T01:39:12;14.60;99.90
7704;DHT22;3894;49.700;10.770;2023-06-24T01:41:47;14.60;99.90
7704;DHT22;3894;49.700;10.770;2023-06-24T01:44:15;14.60;99.90
7704;DHT22;3894;49.700;10.770;2023-06-24T01:46:44;14.70;99.90
7704;DHT22;3894;49.700;10.770;2023-06-24T01:49:13;14.80;99.90
7704;DHT22;3894;49.700;10.770;2023-06-24T01:51:41;14.80;99.90
7704;DHT22;3894;49.700;10.770;2023-06-24T01:54:13;14.80;99.90
7704;DHT22;3894;49.700;10.770;2023-06-24T01:56:42;14.50;99.90
7704;DHT22;3894;49.700;10.770;2023-06-24T01:59:09;14.40;99.90
7704;DHT22;3894;49.700;10.770;2023-06-24T02:01:37;14.30;99.90
7704;DHT22;3894;49.700;10.770;2023-06-24T02:04:07;14.30;99.90
7704;DHT22;3894;49.700;10.770;2023-06-24T02:06:34;14.40;99.90
7704;DHT22;3894;49.700;10.770;2023-06-24T02:09:00;14.50;99.90
7704;DHT22;3894;49.700;10.770;2023-06-24T02:11:28;14.50;99.90
7704;DHT22;3894;49.700;10.770;2023-06-24T02:13:55;14.60;99.90
7704;DHT22;3894;49.700;10.770;2023-06-24T02:16:22;14.60;99.90
7704;DHT22;3894;49.700;10.770;2023-06-24T02:18:48;14.50;99.90
7704;DHT22;3894;49.700;10.770;2023-06-24T02:21:17;14.40;99.90
7704;DHT22;3894;49.700;10.770;2023-06-24T02:23:44;14.40;99.90
7704;DHT22;3894;49.700;10.770;2023-06-24T02:26:10;14.30;99.90
7704;DHT22;3894;49.700;10.770;2023-06-24T02:28:37;14.20;99.90
7704;DHT22;3894;49.700;10.770;2023-06-24T02:31:04;14.30;99.90
7704;DHT22;3894;49.700;10.770;2023-06-24T02:33:31;14.40;99.90
7704;DHT22;3894;49.700;10.770;2023-06-24T02:35:57;14.40;99.90
7704;DHT22;3894;49.700;10.770;2023-06-24T02:38:23;14.50;99.90
7704;DHT22;3894;49.700;10.770;2023-06-24T02:40:49;14.50;99.90
7704;DHT22;3894;49.700;10.770;2023-06-24T02:43:17;14.40;99.90
7704;DHT22;3894;49.700;10.770;2023-06-24T02:45:44;14.40;99.90
7704;DHT22;3894;49.700;10.770;2023-06-24T02:48:10;14.40;99.90
7704;DHT22;3894;49.700;10.770;2023-06-24T02:50:37;14.40;99.90
7704;DHT22;3894;49.700;10.770;2023-06-24T02:53:04;14.20;99.90
7704;DHT22;3894;49.700;10.770;2023-06-24T02:55:31;14.00;99.90
7704;DHT22;3894;49.700;10.770;2023-06-24T02:57:57;13.90;99.90
7704;DHT22;3894;49.700;10.770;2023-06-24T03:00:23;13.70;99.90
7704;DHT22;3894;49.700;10.770;2023-06-24T03:02:50;13.60;99.90
7704;DHT22;3894;49.700;10.770;2023-06-24T03:05:16;13.60;99.90
7704;DHT22;3894;49.700;10.770;2023-06-24T03:07:44;13.60;99.90
7704;DHT22;3894;49.700;10.770;2023-06-24T03:10:10;13.60;99.90
7704;DHT22;3894;49.700;10.770;2023-06-24T03:12:36;13.60;99.90
7704;DHT22;3894;49.700;10.770;2023-06-24T03:15:02;13.60;99.90
7704;DHT22;3894;49.700;10.770;2023-06-24T03:17:28;13.60;99.90
7704;DHT22;3894;49.700;10.770;2023-06-24T03:19:54;13.50;99.90
7704;DHT22;3894;49.700;10.770;2023-06-24T03:22:21;13.50;99.90
7704;DHT22;3894;49.700;10.770;2023-06-24T03:24:47;13.50;99.90
7704;DHT22;3894;49.700;10.770;2023-06-24T03:27:12;13.50;99.90
7704;DHT22;3894;49.700;10.770;2023-06-24T03:29:38;13.50;99.90
7704;DHT22;3894;49.700;10.770;2023-06-24T03:32:04;13.60;99.90
7704;DHT22;3894;49.700;10.770;2023-06-24T03:34:29;13.70;99.90
7704;DHT22;3894;49.700;10.770;2023-06-24T03:36:55;13.80;99.90
7704;DHT22;3894;49.700;10.770;2023-06-24T03:39:21;13.80;99.90
7704;DHT22;3894;49.700;10.770;2023-06-24T03:41:46;13.90;99.90
7704;DHT22;3894;49.700;10.770;2023-06-24T03:44:12;13.90;99.90
7704;DHT22;3894;49.700;10.770;2023-06-24T03:46:38;14.00;99.90
7704;DHT22;3894;49.700;10.770;2023-06-24T03:49:04;14.00;99.90
7704;DHT22;3894;49.700;10.770;2023-06-24T03:51:30;14.10;99.90
7704;DHT22;3894;49.700;10.770;2023-06-24T03:53:56;14.10;99.90
7704;DHT22;3894;49.700;10.770;2023-06-24T03:56:22;14.10;99.90
7704;DHT22;3894;49.700;10.770;2023-06-24T03:58:47;14.10;99.90
7704;DHT22;3894;49.700;10.770;2023-06-24T04:01:13;14.10;99.90
7704;DHT22;3894;49.700;10.770;2023-06-24T04:03:38;14.10;99.90
7704;DHT22;3894;49.700;10.770;2023-06-24T04:06:04;14.10;99.90
7704;DHT22;3894;49.700;10.770;2023-06-24T04:08:29;14.10;99.90
7704;DHT22;3894;49.700;10.770;2023-06-24T04:10:56;14.00;99.90
7704;DHT22;3894;49.700;10.770;2023-06-24T04:13:22;13.90;99.90
7704;DHT22;3894;49.700;10.770;2023-06-24T04:15:47;13.80;99.90
7704;DHT22;3894;49.700;10.770;2023-06-24T04:18:13;13.90;99.90
7704;DHT22;3894;49.700;10.770;2023-06-24T04:20:39;13.90;99.90
7704;DHT22;3894;49.700;10.770;2023-06-24T04:23:05;14.10;99.90
7704;DHT22;3894;49.700;10.770;2023-06-24T04:25:35;14.20;99.90
7704;DHT22;3894;49.700;10.770;2023-06-24T04:28:01;14.30;99.90
7704;DHT22;3894;49.700;10.770;2023-06-24T04:30:27;14.30;99.90
7704;DHT22;3894;49.700;10.770;2023-06-24T04:32:52;14.50;99.90
7704;DHT22;3894;49.700;10.770;2023-06-24T04:35:18;14.50;99.90
7704;DHT22;3894;49.700;10.770;2023-06-24T04:37:43;14.60;99.90
7704;DHT22;3894;49.700;10.770;2023-06-24T04:40:09;14.70;99.90
7704;DHT22;3894;49.700;10.770;2023-06-24T04:42:35;14.70;99.90
7704;DHT22;3894;49.700;10.770;2023-06-24T04:45:00;14.70;99.90
7704;DHT22;3894;49.700;10.770;2023-06-24T04:47:31;14.70;99.90
7704;DHT22;3894;49.700;10.770;2023-06-24T04:49:56;14.80;99.90
7704;DHT22;3894;49.700;10.770;2023-06-24T04:52:23;14.80;99.90
7704;DHT22;3894;49.700;10.770;2023-06-24T04:54:49;14.80;99.90
7704;DHT22;3894;49.700;10.770;2023-06-24T04:57:29;14.90;99.90
7704;DHT22;3894;49.700;10.770;2023-06-24T04:59:56;15.10;99.90
7704;DHT22;3894;49.700;10.770;2023-06-24T05:02:22;15.20;99.90
7704;DHT22;3894;49.700;10.770;2023-06-24T05:04:49;15.50;99.90
7704;DHT22;3894;49.700;10.770;2023-06-24T05:07:15;16.00;99.90
7704;DHT22;3894;49.700;10.770;2023-06-24T05:09:41;16.50;99.90
7704;DHT22;3894;49.700;10.770;2023-06-24T05:12:07;16.70;99.90
7704;DHT22;3894;49.700;10.770;2023-06-24T05:14:36;16.80;99.90
7704;DHT22;3894;49.700;10.770;2023-06-24T05:17:03;16.90;99.90
7704;DHT22;3894;49.700;10.770;2023-06-24T05:19:29;16.90;99.90
7704;DHT22;3894;49.700;10.770;2023-06-24T05:21:54;16.90;99.90
7704;DHT22;3894;49.700;10.770;2023-06-24T05:24:20;17.00;99.90
7704;DHT22;3894;49.700;10.770;2023-06-24T05:26:49;17.20;99.90
7704;DHT22;3894;49.700;10.770;2023-06-24T05:29:14;17.30;99.90
7704;DHT22;3894;49.700;10.770;2023-06-24T05:31:40;17.50;99.90
7704;DHT22;3894;49.700;10.770;2023-06-24T05:34:06;17.60;99.90
7704;DHT22;3894;49.700;10.770;2023-06-24T05:36:32;17.70;99.90
7704;DHT22;3894;49.700;10.770;2023-06-24T05:38:57;17.80;99.90
7704;DHT22;3894;49.700;10.770;2023-06-24T05:41:23;17.90;99.90
7704;DHT22;3894;49.700;10.770;2023-06-24T05:43:49;18.00;99.90
7704;DHT22;3894;49.700;10.770;2023-06-24T05:46:15;18.20;99.90
7704;DHT22;3894;49.700;10.770;2023-06-24T05:48:40;18.30;99.90
7704;DHT22;3894;49.700;10.770;2023-06-24T05:51:07;18.40;99.90
7704;DHT22;3894;49.700;10.770;2023-06-24T05:53:34;18.40;99.90
7704;DHT22;3894;49.700;10.770;2023-06-24T05:55:59;18.40;99.90
7704;DHT22;3894;49.700;10.770;2023-06-24T05:58:25;18.60;99.90
7704;DHT22;3894;49.700;10.770;2023-06-24T06:00:51;18.70;99.90
7704;DHT22;3894;49.700;10.770;2023-06-24T06:03:17;18.80;99.90
7704;DHT22;3894;49.700;10.770;2023-06-24T06:05:42;18.80;99.90
7704;DHT22;3894;49.700;10.770;2023-06-24T06:08:08;19.00;99.90
7704;DHT22;3894;49.700;10.770;2023-06-24T06:10:33;19.10;99.90
7704;DHT22;3894;49.700;10.770;2023-06-24T06:12:59;19.30;99.90
7704;DHT22;3894;49.700;10.770;2023-06-24T06:15:25;19.30;99.90
7704;DHT22;3894;49.700;10.770;2023-06-24T06:17:51;19.30;99.90
7704;DHT22;3894;49.700;10.770;2023-06-24T06:20:17;19.10;99.90
7704;DHT22;3894;49.700;10.770;2023-06-24T06:22:42;19.10;99.90
7704;DHT22;3894;49.700;10.770;2023-06-24T06:25:08;19.20;99.90
7704;DHT22;3894;49.700;10.770;2023-06-24T06:27:34;19.40;99.90
7704;DHT22;3894;49.700;10.770;2023-06-24T06:29:59;19.60;99.90
7704;DHT22;3894;49.700;10.770;2023-06-24T06:32:25;19.70;99.90
7704;DHT22;3894;49.700;10.770;2023-06-24T06:34:51;19.80;99.90
7704;DHT22;3894;49.700;10.770;2023-06-24T06:37:16;19.90;99.90
7704;DHT22;3894;49.700;10.770;2023-06-24T06:39:42;20.00;99.90
7704;DHT22;3894;49.700;10.770;2023-06-24T06:42:08;20.20;99.90
7704;DHT22;3894;49.700;10.770;2023-06-24T06:44:33;20.30;99.90
7704;DHT22;3894;49.700;10.770;2023-06-24T06:46:59;20.30;99.90
7704;DHT22;3894;49.700;10.770;2023-06-24T06:49:24;20.30;99.90
7704;DHT22;3894;49.700;10.770;2023-06-24T06:51:53;20.00;99.90
7704;DHT22;3894;49.700;10.770;2023-06-24T06:54:19;20.00;99.90
7704;DHT22;3894;49.700;10.770;2023-06-24T06:56:44;20.20;99.90
7704;DHT22;3894;49.700;10.770;2023-06-24T06:59:10;20.30;99.90
7704;DHT22;3894;49.700;10.770;2023-06-24T07:01:35;20.60;99.90
7704;DHT22;3894;49.700;10.770;2023-06-24T07:04:01;20.60;99.90
7704;DHT22;3894;49.700;10.770;2023-06-24T07:06:26;20.70;99.90
7704;DHT22;3894;49.700;10.770;2023-06-24T07:08:53;21.00;99.90
7704;DHT22;3894;49.700;10.770;2023-06-24T07:11:18;21.20;99.90
7704;DHT22;3894;49.700;10.770;2023-06-24T07:13:44;21.40;99.90
7704;DHT22;3894;49.700;10.770;2023-06-24T07:16:11;21.70;99.90
7704;DHT22;3894;49.700;10.770;2023-06-24T07:18:36;21.70;99.90
7704;DHT22;3894;49.700;10.770;2023-06-24T07:21:02;21.70;99.90
7704;DHT22;3894;49.700;10.770;2023-06-24T07:23:28;21.90;99.90
7704;DHT22;3894;49.700;10.770;2023-06-24T07:25:53;22.10;99.90
7704;DHT22;3894;49.700;10.770;2023-06-24T07:28:19;22.20;99.90
7704;DHT22;3894;49.700;10.770;2023-06-24T07:30:44;22.20;99.90
7704;DHT22;3894;49.700;10.770;2023-06-24T07:33:10;22.10;99.90
7704;DHT22;3894;49.700;10.770;2023-06-24T07:35:36;22.30;99.90
7704;DHT22;3894;49.700;10.770;2023-06-24T07:38:01;22.60;99.90
7704;DHT22;3894;49.700;10.770;2023-06-24T07:40:27;22.40;99.90
7704;DHT22;3894;49.700;10.770;2023-06-24T07:42:53;22.30;99.90
7704;DHT22;3894;49.700;10.770;2023-06-24T07:45:19;22.20;99.90
7704;DHT22;3894;49.700;10.770;2023-06-24T07:47:45;22.50;99.90
7704;DHT22;3894;49.700;10.770;2023-06-24T07:50:10;22.50;99.90
7704;DHT22;3894;49.700;10.770;2023-06-24T07:52:37;22.40;99.90
7704;DHT22;3894;49.700;10.770;2023-06-24T07:55:04;22.60;99.90
7704;DHT22;3894;49.700;10.770;2023-06-24T07:57:30;22.70;99.90
7704;DHT22;3894;49.700;10.770;2023-06-24T07:59:56;23.00;99.90
7704;DHT22;3894;49.700;10.770;2023-06-24T08:02:21;23.20;99.90
7704;DHT22;3894;49.700;10.770;2023-06-24T08:04:47;23.20;99.90
7704;DHT22;3894;49.700;10.770;2023-06-24T08:07:12;23.30;99.90
7704;DHT22;3894;49.700;10.770;2023-06-24T08:09:38;23.10;99.90
7704;DHT22;3894;49.700;10.770;2023-06-24T08:12:04;23.00;99.90
7704;DHT22;3894;49.700;10.770;2023-06-24T08:14:29;23.10;99.90
7704;DHT22;3894;49.700;10.770;2023-06-24T08:16:55;23.20;99.90
7704;DHT22;3894;49.700;10.770;2023-06-24T08:19:21;23.30;99.90
7704;DHT22;3894;49.700;10.770;2023-06-24T08:21:46;23.20;99.90
7704;DHT22;3894;49.700;10.770;2023-06-24T08:24:12;23.20;99.90
7704;DHT22;3894;49.700;10.770;2023-06-24T08:26:37;23.60;99.90
7704;DHT22;3894;49.700;10.770;2023-06-24T08:29:03;23.30;99.90
7704;DHT22;3894;49.700;10.770;2023-06-24T08:31:29;22.70;99.90
7704;DHT22;3894;49.700;10.770;2023-06-24T08:33:54;22.70;99.90
7704;DHT22;3894;49.700;10.770;2023-06-24T08:36:23;23.10;99.90
7704;DHT22;3894;49.700;10.770;2023-06-24T08:38:49;23.60;99.90
7704;DHT22;3894;49.700;10.770;2023-06-24T08:41:15;23.60;99.90
7704;DHT22;3894;49.700;10.770;2023-06-24T08:43:40;23.50;99.90
7704;DHT22;3894;49.700;10.770;2023-06-24T08:46:07;23.60;99.90
7704;DHT22;3894;49.700;10.770;2023-06-24T08:48:33;23.90;99.90
7704;DHT22;3894;49.700;10.770;2023-06-24T08:51:08;24.30;99.90
7704;DHT22;3894;49.700;10.770;2023-06-24T08:53:34;24.30;99.90
7704;DHT22;3894;49.700;10.770;2023-06-24T08:56:01;24.40;99.90
7704;DHT22;3894;49.700;10.770;2023-06-24T08:58:26;24.60;99.90
7704;DHT22;3894;49.700;10.770;2023-06-24T09:00:52;24.70;99.90
7704;DHT22;3894;49.700;10.770;2023-06-24T09:03:20;24.90;99.90
7704;DHT22;3894;49.700;10.770;2023-06-24T09:05:45;25.00;99.90
7704;DHT22;3894;49.700;10.770;2023-06-24T09:08:11;24.80;99.90
7704;DHT22;3894;49.700;10.770;2023-06-24T09:10:37;24.20;99.90
7704;DHT22;3894;49.700;10.770;2023-06-24T09:13:05;23.70;99.90
7704;DHT22;3894;49.700;10.770;2023-06-24T09:15:35;23.20;99.90
7704;DHT22;3894;49.700;10.770;2023-06-24T09:18:01;23.40;99.90
7704;DHT22;3894;49.700;10.770;2023-06-24T09:20:31;23.90;99.90
7704;DHT22;3894;49.700;10.770;2023-06-24T09:23:04;23.90;99.90
7704;DHT22;3894;49.700;10.770;2023-06-24T09:25:30;24.30;99.90
7704;DHT22;3894;49.700;10.770;2023-06-24T09:28:00;24.90;99.90
7704;DHT22;3894;49.700;10.770;2023-06-24T09:30:26;25.00;99.90
7704;DHT22;3894;49.700;10.770;2023-06-24T09:32:52;25.20;99.90
7704;DHT22;3894;49.700;10.770;2023-06-24T09:35:19;25.20;99.90
7704;DHT22;3894;49.700;10.770;2023-06-24T09:37:53;24.80;99.90
7704;DHT22;3894;49.700;10.770;2023-06-24T09:40:19;24.30;99.90
7704;DHT22;3894;49.700;10.770;2023-06-24T09:42:54;23.80;99.90
7704;DHT22;3894;49.700;10.770;2023-06-24T09:45:27;23.50;99.90
7704;DHT22;3894;49.700;10.770;2023-06-24T09:47:54;23.20;99.90
7704;DHT22;3894;49.700;10.770;2023-06-24T09:50:20;23.20;99.90
7704;DHT22;3894;49.700;10.770;2023-06-24T09:52:48;23.30;99.90
7704;DHT22;3894;49.700;10.770;2023-06-24T09:55:15;23.20;99.90
7704;DHT22;3894;49.700;10.770;2023-06-24T09:57:46;23.10;99.90
7704;DHT22;3894;49.700;10.770;2023-06-24T10:00:15;23.60;99.90
7704;DHT22;3894;49.700;10.770;2023-06-24T10:02:44;24.30;99.90
7704;DHT22;3894;49.700;10.770;2023-06-24T10:05:11;24.80;99.90
7704;DHT22;3894;49.700;10.770;2023-06-24T10:07:38;25.30;99.90
7704;DHT22;3894;49.700;10.770;2023-06-24T10:10:05;25.70;99.90
7704;DHT22;3894;49.700;10.770;2023-06-24T10:12:31;26.20;99.90
7704;DHT22;3894;49.700;10.770;2023-06-24T10:14:58;26.30;99.90
7704;DHT22;3894;49.700;10.770;2023-06-24T10:17:24;25.60;99.90
7704;DHT22;3894;49.700;10.770;2023-06-24T10:19:52;25.20;99.90
7704;DHT22;3894;49.700;10.770;2023-06-24T10:22:22;24.90;99.90
7704;DHT22;3894;49.700;10.770;2023-06-24T10:24:48;25.10;99.90
7704;DHT22;3894;49.700;10.770;2023-06-24T10:27:14;25.30;99.90
7704;DHT22;3894;49.700;10.770;2023-06-24T10:29:44;25.20;99.80
7704;DHT22;3894;49.700;10.770;2023-06-24T10:32:10;25.10;99.90
7704;DHT22;3894;49.700;10.770;2023-06-24T10:34:54;24.60;99.80
7704;DHT22;3894;49.700;10.770;2023-06-24T10:37:25;24.10;99.90
7704;DHT22;3894;49.700;10.770;2023-06-24T10:44:57;25.00;97.80
7704;DHT22;3894;49.700;10.770;2023-06-24T10:47:23;25.40;98.80
7704;DHT22;3894;49.700;10.770;2023-06-24T10:49:49;25.80;97.60
7704;DHT22;3894;49.700;10.770;2023-06-24T10:52:21;26.00;95.80
7704;DHT22;3894;49.700;10.770;2023-06-24T10:54:48;25.90;95.80
7704;DHT22;3894;49.700;10.770;2023-06-24T10:57:14;26.10;96.40
7704;DHT22;3894;49.700;10.770;2023-06-24T10:59:40;26.40;96.40
7704;DHT22;3894;49.700;10.770;2023-06-24T11:02:08;26.50;95.90
7704;DHT22;3894;49.700;10.770;2023-06-24T11:04:43;26.50;94.80
7704;DHT22;3894;49.700;10.770;2023-06-24T11:07:08;26.50;95.00
7704;DHT22;3894;49.700;10.770;2023-06-24T11:09:34;26.40;94.30
7704;DHT22;3894;49.700;10.770;2023-06-24T11:12:02;26.30;94.30
7704;DHT22;3894;49.700;10.770;2023-06-24T11:14:28;26.20;93.60
7704;DHT22;3894;49.700;10.770;2023-06-24T11:16:54;26.10;93.50
7704;DHT22;3894;49.700;10.770;2023-06-24T11:19:19;26.00;94.50
7704;DHT22;3894;49.700;10.770;2023-06-24T11:21:45;26.60;94.60
7704;DHT22;3894;49.700;10.770;2023-06-24T11:24:10;26.90;93.20
7704;DHT22;3894;49.700;10.770;2023-06-24T11:26:36;26.90;92.60
7704;DHT22;3894;49.700;10.770;2023-06-24T11:29:10;26.90;92.90
7704;DHT22;3894;49.700;10.770;2023-06-24T11:31:35;26.90;92.10
7704;DHT22;3894;49.700;10.770;2023-06-24T11:34:01;26.90;93.40
7704;DHT22;3894;49.700;10.770;2023-06-24T11:36:27;27.50;93.80
7704;DHT22;3894;49.700;10.770;2023-06-24T11:38:54;28.00;93.80
7704;DHT22;3894;49.700;10.770;2023-06-24T11:41:20;28.10;92.40
7704;DHT22;3894;49.700;10.770;2023-06-24T11:43:47;28.20;92.60
7704;DHT22;3894;49.700;10.770;2023-06-24T11:46:29;28.50;93.20
7704;DHT22;3894;49.700;10.770;2023-06-24T11:49:06;28.90;92.80
7704;DHT22;3894;49.700;10.770;2023-06-24T11:51:32;28.20;91.10
7704;DHT22;3894;49.700;10.770;2023-06-24T11:54:02;27.60;91.80
7704;DHT22;3894;49.700;10.770;2023-06-24T11:56:39;27.10;92.70
7704;DHT22;3894;49.700;10.770;2023-06-24T11:59:16;26.90;92.60
7704;DHT22;3894;49.700;10.770;2023-06-24T12:01:43;27.30;92.10
7704;DHT22;3894;49.700;10.770;2023-06-24T12:04:13;27.40;91.40
7704;DHT22;3894;49.700;10.770;2023-06-24T12:06:42;26.90;91.80
7704;DHT22;3894;49.700;10.770;2023-06-24T12:09:09;26.40;91.30
7704;DHT22;3894;49.700;10.770;2023-06-24T12:11:35;25.70;92.10
7704;DHT22;3894;49.700;10.770;2023-06-24T12:14:00;26.00;92.30
7704;DHT22;3894;49.700;10.770;2023-06-24T12:16:26;26.50;92.20
7704;DHT22;3894;49.700;10.770;2023-06-24T12:18:52;27.20;91.20
7704;DHT22;3894;49.700;10.770;2023-06-24T12:21:18;27.80;91.30
7704;DHT22;3894;49.700;10.770;2023-06-24T12:23:44;27.60;90.80
7704;DHT22;3894;49.700;10.770;2023-06-24T12:26:11;27.60;91.80
7704;DHT22;3894;49.700;10.770;2023-06-24T12:28:36;27.90;91.70
7704;DHT22;3894;49.700;10.770;2023-06-24T12:31:02;28.20;91.60
7704;DHT22;3894;49.700;10.770;2023-06-24T12:33:28;28.60;90.30
7704;DHT22;3894;49.700;10.770;2023-06-24T12:35:54;28.80;89.80
7704;DHT22;3894;49.700;10.770;2023-06-24T12:38:20;28.80;86.70
7704;DHT22;3894;49.700;10.770;2023-06-24T12:40:45;28.80;87.50
7704;DHT22;3894;49.700;10.770;2023-06-24T12:43:11;29.00;85.90
7704;DHT22;3894;49.700;10.770;2023-06-24T12:45:38;28.30;82.60
7704;DHT22;3894;49.700;10.770;2023-06-24T12:48:04;28.20;88.10
7704;DHT22;3894;49.700;10.770;2023-06-24T12:50:29;28.50;85.90
7704;DHT22;3894;49.700;10.770;2023-06-24T12:52:58;28.30;87.00
7704;DHT22;3894;49.700;10.770;2023-06-24T12:55:24;28.20;86.20
7704;DHT22;3894;49.700;10.770;2023-06-24T12:57:49;28.40;89.70
7704;DHT22;3894;49.700;10.770;2023-06-24T13:00:15;28.40;86.10
7704;DHT22;3894;49.700;10.770;2023-06-24T13:02:42;28.40;84.30
7704;DHT22;3894;49.700;10.770;2023-06-24T13:05:08;28.20;82.00
7704;DHT22;3894;49.700;10.770;2023-06-24T13:07:33;28.30;81.80
7704;DHT22;3894;49.700;10.770;2023-06-24T13:10:00;28.60;84.90
7704;DHT22;3894;49.700;10.770;2023-06-24T13:12:26;28.90;83.50
7704;DHT22;3894;49.700;10.770;2023-06-24T13:14:52;29.10;82.60
7704;DHT22;3894;49.700;10.770;2023-06-24T13:17:17;29.30;84.00
7704;DHT22;3894;49.700;10.770;2023-06-24T13:19:43;29.40;82.40
7704;DHT22;3894;49.700;10.770;2023-06-24T13:22:08;28.90;78.10
7704;DHT22;3894;49.700;10.770;2023-06-24T13:24:34;28.40;79.80
7704;DHT22;3894;49.700;10.770;2023-06-24T13:27:00;28.20;78.60
7704;DHT22;3894;49.700;10.770;2023-06-24T13:29:25;28.10;78.50
7704;DHT22;3894;49.700;10.770;2023-06-24T13:31:52;28.30;81.80
7704;DHT22;3894;49.700;10.770;2023-06-24T13:34:21;28.50;79.60
7704;DHT22;3894;49.700;10.770;2023-06-24T13:36:46;28.90;80.50
7704;DHT22;3894;49.700;10.770;2023-06-24T13:39:12;28.90;80.30
7704;DHT22;3894;49.700;10.770;2023-06-24T13:41:39;28.70;75.60
7704;DHT22;3894;49.700;10.770;2023-06-24T13:44:04;28.50;75.90
7704;DHT22;3894;49.700;10.770;2023-06-24T13:46:31;28.40;75.40
7704;DHT22;3894;49.700;10.770;2023-06-24T13:48:58;28.30;75.60
7704;DHT22;3894;49.700;10.770;2023-06-24T13:51:24;28.30;74.90
7704;DHT22;3894;49.700;10.770;2023-06-24T13:53:52;27.90;76.00
7704;DHT22;3894;49.700;10.770;2023-06-24T13:56:19;27.90;77.60
7704;DHT22;3894;49.700;10.770;2023-06-24T13:58:46;28.00;80.20
7704;DHT22;3894;49.700;10.770;2023-06-24T14:01:12;28.10;81.40
7704;DHT22;3894;49.700;10.770;2023-06-24T14:03:37;28.20;79.70
7704;DHT22;3894;49.700;10.770;2023-06-24T14:06:04;28.40;81.40
7704;DHT22;3894;49.700;10.770;2023-06-24T14:08:30;28.50;80.70
7704;DHT22;3894;49.700;10.770;2023-06-24T14:10:57;28.80;81.90
7704;DHT22;3894;49.700;10.770;2023-06-24T14:13:23;28.90;80.90
7704;DHT22;3894;49.700;10.770;2023-06-24T14:15:49;29.00;80.30
7704;DHT22;3894;49.700;10.770;2023-06-24T14:18:15;28.90;78.70
7704;DHT22;3894;49.700;10.770;2023-06-24T14:20:41;28.80;77.80
7704;DHT22;3894;49.700;10.770;2023-06-24T14:23:07;28.60;78.40
7704;DHT22;3894;49.700;10.770;2023-06-24T14:25:32;28.60;78.50
7704;DHT22;3894;49.700;10.770;2023-06-24T14:27:58;28.60;78.30
7704;DHT22;3894;49.700;10.770;2023-06-24T14:30:24;28.60;77.80
7704;DHT22;3894;49.700;10.770;2023-06-24T14:32:49;28.60;78.50
7704;DHT22;3894;49.700;10.770;2023-06-24T14:35:15;28.60;76.70
7704;DHT22;3894;49.700;10.770;2023-06-24T14:37:40;28.60;76.40
7704;DHT22;3894;49.700;10.770;2023-06-24T14:40:07;28.60;77.00
7704;DHT22;3894;49.700;10.770;2023-06-24T14:42:34;28.60;76.80
7704;DHT22;3894;49.700;10.770;2023-06-24T14:45:00;28.60;76.60
7704;DHT22;3894;49.700;10.770;2023-06-24T14:47:26;28.50;76.00
7704;DHT22;3894;49.700;10.770;2023-06-24T14:49:53;28.50;75.90
7704;DHT22;3894;49.700;10.770;2023-06-24T14:52:18;28.40;75.90
7704;DHT22;3894;49.700;10.770;2023-06-24T14:54:46;28.40;74.70
7704;DHT22;3894;49.700;10.770;2023-06-24T14:57:12;28.30;75.10
7704;DHT22;3894;49.700;10.770;2023-06-24T14:59:37;28.30;75.40
7704;DHT22;3894;49.700;10.770;2023-06-24T15:02:03;28.20;75.00
7704;DHT22;3894;49.700;10.770;2023-06-24T15:04:29;28.10;75.60
7704;DHT22;3894;49.700;10.770;2023-06-24T15:06:54;28.20;75.30
7704;DHT22;3894;49.700;10.770;2023-06-24T15:09:22;28.10;73.60
7704;DHT22;3894;49.700;10.770;2023-06-24T15:11:48;28.10;74.10
7704;DHT22;3894;49.700;10.770;2023-06-24T15:14:13;28.10;72.60
7704;DHT22;3894;49.700;10.770;2023-06-24T15:16:39;28.10;72.70
7704;DHT22;3894;49.700;10.770;2023-06-24T15:19:05;28.00;72.10
7704;DHT22;3894;49.700;10.770;2023-06-24T15:21:30;28.10;73.40
7704;DHT22;3894;49.700;10.770;2023-06-24T15:23:56;28.10;74.10
7704;DHT22;3894;49.700;10.770;2023-06-24T15:26:21;28.30;74.70
7704;DHT22;3894;49.700;10.770;2023-06-24T15:28:47;28.30;75.10
7704;DHT22;3894;49.700;10.770;2023-06-24T15:31:13;28.40;75.70
7704;DHT22;3894;49.700;10.770;2023-06-24T15:33:39;28.50;76.10
7704;DHT22;3894;49.700;10.770;2023-06-24T15:36:04;28.50;75.40
7704;DHT22;3894;49.700;10.770;2023-06-24T15:38:30;28.60;75.50
7704;DHT22;3894;49.700;10.770;2023-06-24T15:40:55;28.60;75.50
7704;DHT22;3894;49.700;10.770;2023-06-24T15:43:21;28.60;74.90
7704;DHT22;3894;49.700;10.770;2023-06-24T15:45:47;28.60;75.00
7704;DHT22;3894;49.700;10.770;2023-06-24T15:48:12;28.60;75.20
7704;DHT22;3894;49.700;10.770;2023-06-24T15:50:39;28.60;74.60
7704;DHT22;3894;49.700;10.770;2023-06-24T15:53:04;28.50;75.00
7704;DHT22;3894;49.700;10.770;2023-06-24T15:55:30;28.40;73.50
7704;DHT22;3894;49.700;10.770;2023-06-24T15:57:56;28.10;74.40